WetterOnline ( http://www.wetteronline.de )

Wetter aktuell Frontone

Aktuelles Wetter: Frontone (574m)

6-stündlich | Neueste Meldungen
Ortszeit Temperatur Wetter
Sa, 20.01. 13:00 8.0° C fast wolkenlos
Sa, 20.01. 7:00 4.0° C leicht bewölkt
Sa, 20.01. 1:00 6.4° C Sprühregen
Fr, 19.01. 19:00 9.0° C leicht bewölkt
Fr, 19.01. 13:00 10.2° C wolkig
Fr, 19.01. 7:00 8.2° C leicht bewölkt
Fr, 19.01. 1:00 8.2° C leicht bewölkt
Do, 18.01. 19:00 7.8° C leicht bewölkt
Ortszeit Temperatur Wetter
Sa, 20.01. 18:00 6.4° C leicht bewölkt
Sa, 20.01. 17:55 6° C leicht bewölkt
Sa, 20.01. 17:00 7.6° C leicht bewölkt
Sa, 20.01. 16:55 8° C leicht bewölkt
Sa, 20.01. 16:00 8.8° C wolkig
Sa, 20.01. 15:55 9° C leicht bewölkt
Sa, 20.01. 15:00 9.4° C leicht bewölkt
Sa, 20.01. 14:55 9° C leicht bewölkt
Sa, 20.01. 14:00 9.0° C leicht bewölkt
Ortszeit Relative Feuchte Sichtweite
Sa, 20.01. 13:00 50% 40 km
Sa, 20.01. 7:00 95% 12 km
Sa, 20.01. 1:00 96% 15 km
Fr, 19.01. 19:00 85% 25 km
Fr, 19.01. 13:00 80% 20 km
Fr, 19.01. 7:00 87% 40 km
Fr, 19.01. 1:00 82% 40 km
Do, 18.01. 19:00 75% 40 km
Ortszeit Relative Feuchte Sichtweite
Sa, 20.01. 18:00 68% 25 km
Sa, 20.01. 17:55 70% >10 km
Sa, 20.01. 17:00 60% 30 km
Sa, 20.01. 16:55 57% >10 km
Sa, 20.01. 16:00 56% 35 km
Sa, 20.01. 15:55 57% >10 km
Sa, 20.01. 15:00 52% 40 km
Sa, 20.01. 14:55 53% >10 km
Sa, 20.01. 14:00 50% 40 km
Ortszeit Niederschlagsmenge Niederschlagsart
Sa, 20.01. 13:00 0.0 l/m2 in 6 Std. Nebel
Sa, 20.01. 7:00 3 l/m2 in 12 Std. Sprühregen
Sa, 20.01. 1:00 3 l/m2 in 6 Std. Regen
Fr, 19.01. 19:00 0.0 l/m2 in 12 Std. -
Fr, 19.01. 13:00 0.0 l/m2 in 6 Std. -
Fr, 19.01. 7:00 0.0 l/m2 in 12 Std. -
Fr, 19.01. 1:00 0.0 l/m2 in 6 Std. -
Do, 18.01. 19:00 0.0 l/m2 in 12 Std. -
Ortszeit Niederschlagsmenge Niederschlagsart
Sa, 20.01. 18:00 keine Meldung -
Sa, 20.01. 17:55 keine Meldung -
Sa, 20.01. 17:00 keine Meldung -
Sa, 20.01. 16:55 keine Meldung -
Sa, 20.01. 16:00 keine Meldung -
Sa, 20.01. 15:55 keine Meldung -
Sa, 20.01. 15:00 keine Meldung -
Sa, 20.01. 14:55 keine Meldung -
Sa, 20.01. 14:00 keine Meldung -
Ortszeit Stärke Spitze Richtung
km/h Bft. km/h Grad Sektor
Sa, 20.01. 13:00 11 2 - 350° N
Sa, 20.01. 7:00 6 1 - 190° S
Sa, 20.01. 1:00 7 2 - 310° NW
Fr, 19.01. 19:00 11 2 - 20° N
Fr, 19.01. 13:00 41 6 - 200° S
Fr, 19.01. 7:00 19 3 - 320° NW
Fr, 19.01. 1:00 22 4 - 10° N
Do, 18.01. 19:00 46 6 - 200° S
Ortszeit Stärke Spitze Richtung
km/h Bft. km/h Grad Sektor
Sa, 20.01. 18:00 11 2 - 90° O
Sa, 20.01. 17:55 11 2 - 90° O
Sa, 20.01. 17:00 11 2 - 240° SW
Sa, 20.01. 16:55 11 2 - 240° SW
Sa, 20.01. 16:00 11 2 - 240° SW
Sa, 20.01. 15:55 11 2 - 240° SW
Sa, 20.01. 15:00 11 2 - 240° SW
Sa, 20.01. 14:55 11 2 - 240° SW
Sa, 20.01. 14:00 6 1 - 300° NW
Ortszeit Untergrenze Bedeckung Gattung
total tief tief mittel hoch
Sa, 20.01. 13:00 810 m 1/8 1/8 Cu - -
Sa, 20.01. 7:00 510 m 4/8 4/8 St - -
Sa, 20.01. 1:00 720 m 8/8 8/8 St - -
Fr, 19.01. 19:00 750 m 5/8 2/8 Cu - Ci
Fr, 19.01. 13:00 720 m 8/8 3/8 Cu As Cs
Fr, 19.01. 7:00 840 m 3/8 3/8 Cu Ac -
Fr, 19.01. 1:00 840 m 3/8 3/8 Cu - -
Do, 18.01. 19:00 840 m 3/8 2/8 Cu - Ci
Ortszeit Bedeckungsgrad in Achtel und Wolkenuntergrenze
Sa, 20.01. 18:00 3(960m)
Sa, 20.01. 17:55 3-4(960m)
Sa, 20.01. 17:00 1(810m)
Sa, 20.01. 16:55 1-2(810m)
Sa, 20.01. 16:00 1(810m)
Sa, 20.01. 15:55 1-2(810m)
Sa, 20.01. 15:00 1(810m)
Sa, 20.01. 14:55 1-2(810m)
Sa, 20.01. 14:00 1(810m)
Ortszeit Stationsdruck (hPa) Tendenz (hPa in 3 Std.)
Sa, 20.01. 13:00 944 - 0,5
Sa, 20.01. 7:00 943 + 0,2
Sa, 20.01. 1:00 943 + 0,5
Fr, 19.01. 19:00 941 0,0
Fr, 19.01. 13:00 940 - 0,8
Fr, 19.01. 7:00 942 - 0,4
Fr, 19.01. 1:00 943 - 1,1
Do, 18.01. 19:00 944 - 1,0
Ortszeit Stationsdruck (hPa) Tendenz (hPa in 3 Std.)
Sa, 20.01. 18:00 942 - 0,3
Sa, 20.01. 17:55 - keine Meldung
Sa, 20.01. 17:00 942 - 0,8
Sa, 20.01. 16:55 - keine Meldung
Sa, 20.01. 16:00 942 - 1,1
Sa, 20.01. 15:55 - keine Meldung
Sa, 20.01. 15:00 942 - 1,6
Sa, 20.01. 14:55 - keine Meldung
Sa, 20.01. 14:00 943 - 1,0
Ortszeit Schneehöhe (cm)
Sa, 20.01. 13:00 -
Sa, 20.01. 7:00 0
Sa, 20.01. 1:00 -
Fr, 19.01. 19:00 -
Fr, 19.01. 13:00 -
Fr, 19.01. 7:00 0
Fr, 19.01. 1:00 -
Do, 18.01. 19:00 -
Ortszeit Schneehöhe (cm)
Sa, 20.01. 18:00 -
Sa, 20.01. 17:55 -
Sa, 20.01. 17:00 -
Sa, 20.01. 16:55 -
Sa, 20.01. 16:00 -
Sa, 20.01. 15:55 -
Sa, 20.01. 15:00 -
Sa, 20.01. 14:55 -
Sa, 20.01. 14:00 -
Link zu dieser Seite / Seite empfehlen

Das Wetter in ...